Time;durP1;ratioP1;P1;durP2;ratioP2;P2;SDS_P1;SDS_P2;PMS_P1;PMS_P2;Temp;Humidity;BMP_temperature;BMP_pressure;BME280_temperature;BME280_humidity;BME280_pressure;Samples;Min_cycle;Max_cycle;Signal;HPM_P1;HPM_P2
2022/06/27 00:01:46;;;;;;;1.90;1.80;;;25.00;57.00;;;;;;5015243;28;20307;-66
2022/06/27 00:04:13;;;;;;;1.92;1.83;;;25.00;56.90;;;;;;5016680;28;20239;-66
2022/06/27 00:06:40;;;;;;;1.70;1.60;;;25.00;57.00;;;;;;5016367;28;20258;-66
2022/06/27 00:09:08;;;;;;;1.83;1.70;;;25.00;57.00;;;;;;5015000;28;20715;-66
2022/06/27 00:11:36;;;;;;;1.98;1.80;;;25.00;57.00;;;;;;5015025;28;20204;-66
2022/06/27 00:14:03;;;;;;;2.47;1.80;;;25.00;57.00;;;;;;5014889;28;20203;-66
2022/06/27 00:16:30;;;;;;;1.90;1.80;;;25.00;57.00;;;;;;5016257;28;20216;-66
2022/06/27 00:18:57;;;;;;;1.63;1.52;;;25.00;57.00;;;;;;5014750;28;20283;-65
2022/06/27 00:21:25;;;;;;;1.90;1.80;;;24.90;56.70;;;;;;5016059;28;20195;-66
2022/06/27 00:23:52;;;;;;;1.67;1.58;;;24.90;56.60;;;;;;5016068;28;20291;-66
2022/06/27 00:26:20;;;;;;;1.60;1.50;;;24.90;56.50;;;;;;5016297;28;20255;-66
2022/06/27 00:28:48;;;;;;;1.70;1.60;;;24.90;56.60;;;;;;5016024;28;20256;-66
2022/06/27 00:31:15;;;;;;;1.60;1.50;;;24.90;56.70;;;;;;5014661;28;20209;-66
2022/06/27 00:33:42;;;;;;;1.85;1.40;;;24.90;56.60;;;;;;5016492;28;20581;-66
2022/06/27 00:36:09;;;;;;;1.63;1.50;;;24.90;56.70;;;;;;5027208;28;20217;-66
2022/06/27 00:38:36;;;;;;;2.05;1.45;;;24.90;56.80;;;;;;5032374;28;20185;-68
2022/06/27 00:41:04;;;;;;;1.70;1.60;;;24.90;57.00;;;;;;5028292;28;20280;-66
2022/06/27 00:43:32;;;;;;;1.33;1.20;;;24.90;57.00;;;;;;5014481;28;20304;-66
2022/06/27 00:45:59;;;;;;;1.95;1.50;;;24.90;57.10;;;;;;5014614;28;20668;-66
2022/06/27 00:48:26;;;;;;;1.38;1.27;;;24.90;57.20;;;;;;5013401;28;20216;-66
2022/06/27 00:50:54;;;;;;;1.98;1.50;;;24.90;57.20;;;;;;5014444;28;20520;-66
2022/06/27 00:53:21;;;;;;;1.73;1.40;;;24.90;57.20;;;;;;5014173;28;20221;-66
2022/06/27 00:55:48;;;;;;;2.25;1.50;;;24.80;57.30;;;;;;5014398;28;20687;-66
2022/06/27 00:58:15;;;;;;;1.42;1.33;;;24.80;57.30;;;;;;5013994;28;20220;-66
2022/06/27 01:00:44;;;;;;;1.52;1.40;;;24.80;57.40;;;;;;5015363;28;20275;-66
2022/06/27 01:03:11;;;;;;;2.33;1.40;;;24.80;57.40;;;;;;5013954;28;20263;-66
2022/06/27 01:05:38;;;;;;;1.40;1.30;;;24.80;57.40;;;;;;5014169;28;20251;-66
2022/06/27 01:08:05;;;;;;;1.55;1.20;;;24.80;58.00;;;;;;5014002;28;20217;-66
2022/06/27 01:10:32;;;;;;;2.17;1.38;;;24.70;57.40;;;;;;5013862;28;20200;-66
2022/06/27 01:13:00;;;;;;;2.75;1.30;;;24.70;57.40;;;;;;5013820;28;20209;-66
2022/06/27 01:15:27;;;;;;;1.73;1.20;;;24.70;57.50;;;;;;5013669;28;20201;-66
2022/06/27 01:17:55;;;;;;;1.65;1.45;;;24.70;57.50;;;;;;5013670;28;20320;-66
2022/06/27 01:20:23;;;;;;;1.45;1.17;;;24.70;57.70;;;;;;5013771;28;20201;-66
2022/06/27 01:22:51;;;;;;;1.90;1.63;;;24.70;57.70;;;;;;5015109;28;20243;-66
2022/06/27 01:25:18;;;;;;;2.17;1.27;;;24.60;57.70;;;;;;5013465;28;20596;-66
2022/06/27 01:27:47;;;;;;;2.15;1.23;;;24.60;57.90;;;;;;5013517;28;20221;-66
2022/06/27 01:30:19;;;;;;;1.52;1.30;;;24.60;57.90;;;;;;5013563;28;20193;-66
2022/06/27 01:32:46;;;;;;;1.50;1.30;;;24.60;58.10;;;;;;5013505;28;20197;-66
2022/06/27 01:35:15;;;;;;;1.73;1.10;;;24.50;58.00;;;;;;5013338;28;20197;-66
2022/06/27 01:37:44;;;;;;;2.90;1.30;;;24.50;57.90;;;;;;5013401;28;20220;-66
2022/06/27 01:40:12;;;;;;;1.40;1.20;;;24.50;58.10;;;;;;5013409;28;20235;-66
2022/06/27 01:42:40;;;;;;;3.67;1.17;;;24.50;58.10;;;;;;5015162;28;20280;-66
2022/06/27 01:45:08;;;;;;;1.90;1.25;;;24.50;58.10;;;;;;5013271;28;20235;-67
2022/06/27 01:47:37;;;;;;;1.10;1.00;;;24.50;58.10;;;;;;5013203;28;20356;-66
2022/06/27 01:50:08;;;;;;;1.80;1.20;;;24.40;58.10;;;;;;5013956;28;20208;-66
2022/06/27 01:52:41;;;;;;;1.75;1.13;;;24.40;58.10;;;;;;5013711;28;20652;-66
2022/06/27 01:55:09;;;;;;;2.28;1.20;;;24.40;58.10;;;;;;5013093;28;20193;-67
2022/06/27 01:57:39;;;;;;;1.85;1.20;;;24.50;58.10;;;;;;5012910;28;20228;-66
2022/06/27 02:00:09;;;;;;;1.33;1.00;;;24.40;58.10;;;;;;5012888;28;20193;-66
2022/06/27 02:02:55;;;;;;;1.42;0.90;;;24.40;58.10;;;;;;5014486;28;20180;-66
2022/06/27 02:05:22;;;;;;;3.03;1.13;;;24.40;58.20;;;;;;5012908;28;20213;-66
2022/06/27 02:07:52;;;;;;;1.48;1.23;;;24.40;58.10;;;;;;5012749;28;20220;-66
2022/06/27 02:10:19;;;;;;;1.30;1.20;;;24.30;58.30;;;;;;5012905;28;20200;-66
2022/06/27 02:12:47;;;;;;;1.63;1.15;;;24.30;58.30;;;;;;5012809;28;20189;-66
2022/06/27 02:15:15;;;;;;;1.20;1.10;;;24.30;58.40;;;;;;5012729;28;20199;-66
2022/06/27 02:17:42;;;;;;;1.25;1.15;;;24.30;58.50;;;;;;5012461;28;20224;-66
2022/06/27 02:20:13;;;;;;;1.60;0.98;;;24.30;58.50;;;;;;5012565;28;20644;-66
2022/06/27 02:22:41;;;;;;;1.67;1.10;;;24.30;58.50;;;;;;5013807;28;20642;-66
2022/06/27 02:25:10;;;;;;;1.25;1.10;;;24.30;58.60;;;;;;5012481;28;20220;-66
2022/06/27 02:27:37;;;;;;;1.30;0.90;;;24.30;58.60;;;;;;5013830;28;20208;-66
2022/06/27 02:30:06;;;;;;;2.20;1.00;;;24.30;58.60;;;;;;5013748;28;20189;-66
2022/06/27 02:32:33;;;;;;;1.33;0.90;;;24.20;58.60;;;;;;5012550;28;20288;-66
2022/06/27 02:35:02;;;;;;;1.05;0.93;;;24.30;59.30;;;;;;5012396;28;20200;-66
2022/06/27 02:37:29;;;;;;;1.20;1.10;;;24.20;58.60;;;;;;5012414;28;20715;-66
2022/06/27 02:39:56;;;;;;;1.30;1.00;;;24.20;58.70;;;;;;5012388;28;20197;-66
2022/06/27 02:42:24;;;;;;;1.00;0.90;;;24.20;58.70;;;;;;5012399;28;20263;-67
2022/06/27 02:44:52;;;;;;;1.38;1.00;;;24.20;58.70;;;;;;5012530;28;20236;-66
2022/06/27 02:47:21;;;;;;;1.50;1.10;;;24.10;58.60;;;;;;5012439;28;20223;-66
2022/06/27 02:49:49;;;;;;;1.17;0.90;;;24.10;58.60;;;;;;5012352;28;20569;-66
2022/06/27 02:52:19;;;;;;;1.15;0.90;;;24.10;58.70;;;;;;5180003;22;20235;-71
2022/06/27 02:54:59;;;;;;;1.30;1.00;;;24.10;58.70;;;;;;5032039;28;20735;-71
2022/06/27 02:57:32;;;;;;;1.67;1.10;;;24.10;58.70;;;;;;5032433;28;20680;-71
2022/06/27 03:00:05;;;;;;;1.52;1.00;;;24.10;58.80;;;;;;5032421;28;20203;-70
2022/06/27 03:02:33;;;;;;;3.03;1.30;;;24.00;58.80;;;;;;5031855;28;20434;-71
2022/06/27 03:05:17;;;;;;;0.93;0.82;;;24.00;59.40;;;;;;5032030;28;20643;-71
2022/06/27 03:07:45;;;;;;;1.48;1.00;;;24.00;58.80;;;;;;5031914;28;20616;-71
2022/06/27 03:10:14;;;;;;;0.93;0.88;;;24.00;58.90;;;;;;5031480;28;20665;-71
2022/06/27 03:12:45;;;;;;;1.60;1.00;;;24.00;59.00;;;;;;5031796;28;20199;-71
2022/06/27 03:15:13;;;;;;;1.60;1.00;;;24.00;59.00;;;;;;5031674;28;20416;-71
2022/06/27 03:17:42;;;;;;;1.10;1.00;;;24.00;59.00;;;;;;5031833;28;20204;-71
2022/06/27 03:20:26;;;;;;;1.50;0.90;;;24.00;59.00;;;;;;5034077;28;20180;-71
2022/06/27 03:23:00;;;;;;;0.80;0.80;;;24.00;59.00;;;;;;5032236;28;20199;-70
2022/06/27 03:25:28;;;;;;;1.48;0.80;;;24.00;59.00;;;;;;5032175;28;20597;-71
2022/06/27 03:27:57;;;;;;;1.60;0.80;;;24.00;59.10;;;;;;5031978;28;20226;-71
2022/06/27 03:30:25;;;;;;;1.13;0.88;;;24.00;58.80;;;;;;5031937;28;20192;-71
2022/06/27 03:32:54;;;;;;;1.20;0.90;;;24.00;58.90;;;;;;5031668;28;20196;-70
2022/06/27 03:35:24;;;;;;;1.20;0.90;;;24.00;58.60;;;;;;5031728;28;20255;-68
2022/06/27 03:37:51;;;;;;;1.25;0.80;;;24.10;58.80;;;;;;5031688;28;20196;-68
2022/06/27 03:40:19;;;;;;;0.93;0.75;;;24.10;58.70;;;;;;5031716;28;20200;-68
2022/06/27 03:42:50;;;;;;;1.98;0.98;;;24.10;58.70;;;;;;5031686;28;20181;-68
2022/06/27 03:45:18;;;;;;;2.95;1.10;;;24.10;58.70;;;;;;5031659;28;20300;-68
2022/06/27 03:47:46;;;;;;;1.67;0.93;;;24.10;58.70;;;;;;5031953;28;20204;-68
2022/06/27 03:50:37;;;;;;;1.33;1.05;;;24.10;58.70;;;;;;5027511;28;20226;-68
2022/06/27 03:53:05;;;;;;;0.88;0.80;;;24.10;58.70;;;;;;5032319;28;20192;-68
2022/06/27 03:55:35;;;;;;;1.65;0.90;;;24.10;58.80;;;;;;5032789;28;20196;-69
2022/06/27 03:58:06;;;;;;;1.75;1.20;;;24.10;58.80;;;;;;5032532;28;20196;-69
2022/06/27 04:00:38;;;;;;;0.95;0.80;;;24.10;58.70;;;;;;5032150;28;20199;-68
2022/06/27 04:03:07;;;;;;;1.17;1.00;;;24.10;58.70;;;;;;5031844;28;20203;-68
2022/06/27 04:05:56;;;;;;;1.58;1.00;;;24.10;58.80;;;;;;5220754;22;20237;-70
2022/06/27 04:08:24;;;;;;;2.85;1.02;;;24.10;58.80;;;;;;5051558;28;20204;-71
2022/06/27 04:10:51;;;;;;;1.15;1.05;;;24.10;59.40;;;;;;5051326;28;20668;-71
2022/06/27 04:13:22;;;;;;;1.80;1.00;;;24.00;60.00;;;;;;5051106;28;20726;-70
2022/06/27 04:16:07;;;;;;;2.33;1.02;;;24.00;60.10;;;;;;5123398;22;20726;-71
2022/06/27 04:18:55;;;;;;;2.75;1.23;;;24.00;60.00;;;;;;5033511;28;20188;-70
2022/06/27 04:21:41;;;;;;;2.95;1.20;;;24.00;60.80;;;;;;5032857;28;20190;-70
2022/06/27 04:24:17;;;;;;;1.80;1.30;;;24.00;60.40;;;;;;5036391;28;20232;-70
2022/06/27 04:26:47;;;;;;;1.48;1.30;;;24.00;60.30;;;;;;5147050;22;20223;-65
2022/06/27 04:29:15;;;;;;;1.50;1.17;;;24.00;60.80;;;;;;5034995;28;20211;-64
2022/06/27 04:31:42;;;;;;;1.67;1.20;;;23.90;62.00;;;;;;5035016;28;20645;-67
2022/06/27 04:34:13;;;;;;;2.33;1.30;;;23.70;62.00;;;;;;5035261;28;20203;-67
2022/06/27 04:36:45;;;;;;;1.65;1.10;;;23.60;62.00;;;;;;5035998;28;20219;-66
2022/06/27 04:39:15;;;;;;;2.03;1.30;;;23.60;62.40;;;;;;5035591;28;20207;-66
2022/06/27 04:41:46;;;;;;;2.65;1.60;;;23.60;63.20;;;;;;5036413;28;20172;-67
2022/06/27 04:44:14;;;;;;;2.95;1.33;;;23.60;63.60;;;;;;5035293;28;20206;-65
2022/06/27 04:46:41;;;;;;;4.65;1.73;;;23.50;63.70;;;;;;5037642;28;20223;-66
2022/06/27 04:49:30;;;;;;;3.75;1.48;;;23.50;64.00;;;;;;5036792;28;20304;-67
2022/06/27 04:52:00;;;;;;;2.38;1.42;;;23.60;63.70;;;;;;5036630;28;20230;-66
2022/06/27 04:54:28;;;;;;;3.88;1.20;;;23.50;63.80;;;;;;5035156;28;20635;-67
2022/06/27 04:56:55;;;;;;;2.65;1.10;;;23.60;63.80;;;;;;5034806;28;20220;-66
2022/06/27 04:59:23;;;;;;;3.55;1.20;;;23.80;63.90;;;;;;5034559;28;20196;-66
2022/06/27 05:01:59;;;;;;;1.33;1.02;;;24.00;62.80;;;;;;5035656;28;20211;-67
2022/06/27 05:04:28;;;;;;;4.05;1.35;;;24.20;62.00;;;;;;5034475;28;20231;-67
2022/06/27 05:06:56;;;;;;;0.80;0.80;;;24.30;61.10;;;;;;5034985;28;20223;-65
2022/06/27 05:09:26;;;;;;;1.35;1.10;;;24.50;61.00;;;;;;5034620;28;20699;-67
2022/06/27 05:11:54;;;;;;;1.15;0.80;;;24.60;60.50;;;;;;5034427;28;20192;-66
2022/06/27 05:14:23;;;;;;;1.48;1.00;;;24.80;60.00;;;;;;5034624;28;20636;-67
2022/06/27 05:16:55;;;;;;;1.98;0.90;;;24.90;59.40;;;;;;5034608;28;20655;-67
2022/06/27 05:19:26;;;;;;;6.07;1.00;;;25.10;58.70;;;;;;5034268;28;20283;-67
2022/06/27 05:21:54;;;;;;;1.02;0.93;;;25.30;58.60;;;;;;5033994;28;20196;-66
2022/06/27 05:24:24;;;;;;;2.60;1.20;;;25.40;57.90;;;;;;5034007;28;20191;-67
2022/06/27 05:26:53;;;;;;;1.58;1.25;;;25.60;57.50;;;;;;5036334;28;20223;-67
2022/06/27 05:29:21;;;;;;;2.15;1.00;;;25.70;56.90;;;;;;5037053;28;20283;-67
2022/06/27 05:31:49;;;;;;;2.15;0.90;;;25.90;56.70;;;;;;5034197;28;20246;-66
2022/06/27 05:34:18;;;;;;;2.15;1.02;;;25.90;56.50;;;;;;5033891;28;20200;-66
2022/06/27 05:36:46;;;;;;;1.95;0.98;;;25.90;56.50;;;;;;5033528;28;20212;-66
2022/06/27 05:39:13;;;;;;;1.77;1.00;;;25.80;56.50;;;;;;5033782;28;20204;-66
2022/06/27 05:41:43;;;;;;;1.17;0.95;;;25.80;56.50;;;;;;5033726;28;20199;-66
2022/06/27 05:44:14;;;;;;;1.52;1.10;;;25.70;56.70;;;;;;5033568;28;20196;-67
2022/06/27 05:46:42;;;;;;;2.97;1.27;;;25.70;56.90;;;;;;5033228;28;20232;-67
2022/06/27 05:49:44;;;;;;;2.25;1.20;;;25.60;56.80;;;;;;4954466;29;20714;-67
2022/06/27 05:52:13;;;;;;;2.15;1.20;;;25.60;57.00;;;;;;5018800;28;20216;-67
2022/06/27 05:54:41;;;;;;;3.33;1.20;;;25.50;57.10;;;;;;5033272;28;20715;-67
2022/06/27 05:57:11;;;;;;;2.45;1.10;;;25.40;57.10;;;;;;5033511;28;20250;-67
2022/06/27 05:59:39;;;;;;;2.55;1.10;;;25.40;57.30;;;;;;5050030;28;20203;-68
2022/06/27 06:02:06;;;;;;;2.55;1.13;;;25.40;57.70;;;;;;5033173;28;20299;-67
2022/06/27 06:04:38;;;;;;;3.22;1.05;;;25.40;57.80;;;;;;5033378;28;20684;-67
2022/06/27 06:07:06;;;;;;;1.83;1.10;;;25.40;58.00;;;;;;5033456;28;20231;-68
2022/06/27 06:09:34;;;;;;;1.63;0.88;;;25.30;58.00;;;;;;5033259;28;20204;-68
2022/06/27 06:12:01;;;;;;;2.58;0.93;;;25.40;58.10;;;;;;5033095;28;20196;-68
2022/06/27 06:14:34;;;;;;;1.48;1.10;;;25.40;58.00;;;;;;5033021;28;20197;-67
2022/06/27 06:17:02;;;;;;;1.83;0.95;;;25.30;57.90;;;;;;5032994;28;20216;-68
2022/06/27 06:19:29;;;;;;;1.85;1.00;;;25.30;57.90;;;;;;5032884;28;20204;-67
2022/06/27 06:21:56;;;;;;;1.98;1.00;;;25.30;58.60;;;;;;5033049;28;20207;-69
2022/06/27 06:24:24;;;;;;;3.03;1.13;;;25.40;57.90;;;;;;5028147;28;20208;-68
2022/06/27 06:26:53;;;;;;;2.08;1.10;;;25.40;57.90;;;;;;5028259;28;20228;-69
2022/06/27 06:29:21;;;;;;;3.05;1.00;;;25.40;57.80;;;;;;5012358;28;20201;-68
2022/06/27 06:32:00;;;;;;;3.55;1.20;;;25.40;57.70;;;;;;5012521;28;20224;-70
2022/06/27 06:34:27;;;;;;;1.52;1.10;;;25.40;57.50;;;;;;5028595;28;20765;-68
2022/06/27 06:36:54;;;;;;;1.48;1.00;;;25.50;57.30;;;;;;5012772;28;20221;-67
2022/06/27 06:39:21;;;;;;;2.42;1.00;;;25.60;57.00;;;;;;5012830;28;20201;-67
2022/06/27 06:41:49;;;;;;;1.23;1.10;;;25.70;56.80;;;;;;5012811;28;20575;-68
2022/06/27 06:44:18;;;;;;;1.98;0.82;;;25.80;56.50;;;;;;5012469;28;20197;-68
2022/06/27 06:46:52;;;;;;;1.75;0.90;;;25.90;56.90;;;;;;5013942;28;20220;-68
2022/06/27 06:49:27;;;;;;;0.90;0.90;;;26.00;55.90;;;;;;5012808;28;20680;-68
2022/06/27 06:51:54;;;;;;;1.00;0.90;;;26.20;55.30;;;;;;5012594;28;20193;-68
2022/06/27 06:54:22;;;;;;;2.33;1.00;;;26.40;54.90;;;;;;5029076;28;20208;-67
2022/06/27 06:56:49;;;;;;;1.00;0.82;;;26.60;54.50;;;;;;5012593;28;20263;-68
2022/06/27 06:59:17;;;;;;;1.77;1.00;;;26.80;54.00;;;;;;5014005;28;20275;-68
2022/06/27 07:01:46;;;;;;;1.73;0.98;;;26.90;53.70;;;;;;5029140;28;20223;-68
2022/06/27 07:04:13;;;;;;;3.35;0.90;;;27.00;53.40;;;;;;5012629;28;20626;-68
2022/06/27 07:06:41;;;;;;;1.58;1.00;;;27.10;53.10;;;;;;5012470;28;20234;-68
2022/06/27 07:09:08;;;;;;;2.40;0.95;;;27.20;52.70;;;;;;5012488;28;20291;-68
2022/06/27 07:11:35;;;;;;;1.00;0.90;;;27.40;52.30;;;;;;5012452;28;20207;-67
2022/06/27 07:14:02;;;;;;;1.73;0.80;;;27.50;51.90;;;;;;5013779;28;20712;-68
2022/06/27 07:16:29;;;;;;;1.10;0.80;;;27.70;51.40;;;;;;5014045;28;20275;-67
2022/06/27 07:18:56;;;;;;;1.80;0.90;;;27.70;51.40;;;;;;5013744;28;20184;-68
2022/06/27 07:21:24;;;;;;;2.45;1.00;;;27.70;51.40;;;;;;5014246;28;20192;-68
2022/06/27 07:23:54;;;;;;;1.67;1.10;;;27.50;51.40;;;;;;5012431;28;20250;-68
2022/06/27 07:26:22;;;;;;;1.25;0.90;;;27.50;51.60;;;;;;5012729;28;20223;-68
2022/06/27 07:28:49;;;;;;;1.40;0.77;;;27.50;51.80;;;;;;5014120;28;20176;-68
2022/06/27 07:31:17;;;;;;;1.25;0.70;;;27.40;51.80;;;;;;5012144;28;20216;-68
2022/06/27 07:33:45;;;;;;;1.23;0.85;;;27.40;51.70;;;;;;5012336;28;20581;-68
2022/06/27 07:36:14;;;;;;;2.53;1.00;;;27.40;51.70;;;;;;5012715;28;20637;-68
2022/06/27 07:38:42;;;;;;;1.58;0.90;;;27.50;51.80;;;;;;5014301;28;20184;-68
2022/06/27 07:41:10;;;;;;;1.30;0.98;;;27.30;51.80;;;;;;5012526;28;20200;-68
2022/06/27 07:43:38;;;;;;;0.93;0.85;;;27.40;51.80;;;;;;5012463;28;20573;-68
2022/06/27 07:46:04;;;;;;;1.33;0.70;;;27.40;51.70;;;;;;5012156;28;20220;-67
2022/06/27 07:48:31;;;;;;;1.13;0.95;;;27.40;51.70;;;;;;5013394;28;20192;-68
2022/06/27 07:50:58;;;;;;;1.52;1.25;;;27.40;51.80;;;;;;5013247;28;20657;-68
2022/06/27 07:53:26;;;;;;;1.90;0.90;;;27.40;51.90;;;;;;5013251;28;20188;-68
2022/06/27 07:55:54;;;;;;;1.48;0.90;;;27.30;51.80;;;;;;5012341;28;20291;-68
2022/06/27 07:58:30;;;;;;;1.00;0.90;;;27.40;51.80;;;;;;5015735;28;20227;-67
2022/06/27 08:00:58;;;;;;;1.85;0.90;;;27.40;51.80;;;;;;5015905;28;20200;-68
2022/06/27 08:03:39;;;;;;;0.88;0.70;;;27.30;51.70;;;;;;5015860;28;20200;-67
2022/06/27 08:06:08;;;;;;;0.70;0.70;;;27.30;51.80;;;;;;5015736;28;20208;-68
2022/06/27 08:08:36;;;;;;;0.85;0.80;;;27.30;51.90;;;;;;5015699;28;20200;-68
2022/06/27 08:11:04;;;;;;;1.00;0.80;;;27.20;51.90;;;;;;5017160;28;20242;-68
2022/06/27 08:13:32;;;;;;;0.80;0.80;;;27.30;51.90;;;;;;5016842;28;20195;-68
2022/06/27 08:15:59;;;;;;;1.42;0.90;;;27.30;51.80;;;;;;5015399;28;20193;-69
2022/06/27 08:18:28;;;;;;;0.70;0.70;;;27.40;51.70;;;;;;5016620;28;20195;-68
2022/06/27 08:20:55;;;;;;;1.02;0.93;;;27.40;51.40;;;;;;5016565;28;20239;-68
2022/06/27 08:23:22;;;;;;;1.02;0.80;;;27.50;51.30;;;;;;5015315;28;20204;-67
2022/06/27 08:25:50;;;;;;;0.80;0.65;;;27.60;51.40;;;;;;5015620;28;20689;-67
2022/06/27 08:28:19;;;;;;;0.73;0.73;;;27.60;51.30;;;;;;5015469;28;20721;-68
2022/06/27 08:30:48;;;;;;;0.88;0.63;;;27.70;51.00;;;;;;5031623;28;20204;-68
2022/06/27 08:33:16;;;;;;;1.10;0.80;;;27.80;50.80;;;;;;5031671;28;20612;-69
2022/06/27 08:35:44;;;;;;;1.65;0.85;;;27.80;51.20;;;;;;5015575;28;20211;-68
2022/06/27 08:38:11;;;;;;;1.23;0.90;;;28.00;50.50;;;;;;5015001;28;20216;-68
2022/06/27 08:40:38;;;;;;;1.48;0.95;;;28.00;50.30;;;;;;5016258;28;20223;-68
2022/06/27 08:43:06;;;;;;;0.70;0.70;;;28.00;50.10;;;;;;5031507;28;20196;-67
2022/06/27 08:45:33;;;;;;;0.60;0.60;;;28.00;50.10;;;;;;5031450;28;20246;-68
2022/06/27 08:48:07;;;;;;;1.27;0.73;;;28.00;50.20;;;;;;5031362;28;20717;-68
2022/06/27 08:50:35;;;;;;;0.95;0.77;;;28.00;50.40;;;;;;5016239;28;20222;-68
2022/06/27 08:53:02;;;;;;;0.77;0.77;;;27.90;50.70;;;;;;5016241;28;20349;-68
2022/06/27 08:55:33;;;;;;;1.27;0.90;;;27.80;50.90;;;;;;5014699;28;20207;-68
2022/06/27 08:58:04;;;;;;;1.10;0.80;;;27.70;51.10;;;;;;5031077;28;20659;-68
2022/06/27 09:00:34;;;;;;;0.60;0.60;;;27.60;51.30;;;;;;5014699;28;20189;-67
2022/06/27 09:03:02;;;;;;;0.80;0.75;;;27.50;51.30;;;;;;5031047;28;20279;-68
2022/06/27 09:05:31;;;;;;;0.80;0.75;;;27.50;51.30;;;;;;5015724;28;20627;-68
2022/06/27 09:07:59;;;;;;;1.55;0.93;;;27.40;52.20;;;;;;5015295;28;20262;-69
2022/06/27 09:10:29;;;;;;;0.93;0.93;;;27.30;51.70;;;;;;5015739;28;20192;-68
2022/06/27 09:12:58;;;;;;;1.17;0.85;;;27.30;51.80;;;;;;5014432;28;20246;-68
2022/06/27 09:15:45;;;;;;;0.70;0.70;;;27.20;51.80;;;;;;5015866;28;20645;-68
2022/06/27 09:18:15;;;;;;;0.80;0.70;;;27.20;52.00;;;;;;5015040;28;20274;-68
2022/06/27 09:20:47;;;;;;;0.70;0.70;;;27.20;51.90;;;;;;5015526;28;20188;-67
2022/06/27 09:23:32;;;;;;;1.63;0.80;;;27.20;52.00;;;;;;5014636;28;20250;-68
2022/06/27 09:26:00;;;;;;;0.80;0.65;;;27.20;52.00;;;;;;5030519;28;20216;-70
2022/06/27 09:28:50;;;;;;;0.85;0.60;;;27.20;52.00;;;;;;5015204;28;20204;-68
2022/06/27 09:31:45;;;;;;;0.70;0.70;;;27.20;52.00;;;;;;5010676;28;20204;-68
2022/06/27 09:34:16;;;;;;;1.15;0.68;;;27.20;51.80;;;;;;4969294;28;20200;-68
2022/06/27 09:36:46;;;;;;;0.75;0.75;;;27.30;52.40;;;;;;5013903;28;20701;-68
2022/06/27 09:39:18;;;;;;;0.88;0.70;;;27.30;51.70;;;;;;5014034;28;20200;-67
2022/06/27 09:41:46;;;;;;;1.15;0.88;;;27.30;51.70;;;;;;5030446;28;20205;-68
2022/06/27 09:44:14;;;;;;;0.73;0.73;;;27.30;51.70;;;;;;5013883;28;20200;-68
2022/06/27 09:46:43;;;;;;;0.80;0.77;;;27.30;52.20;;;;;;5030168;28;20234;-68
2022/06/27 09:49:14;;;;;;;0.88;0.80;;;27.40;51.60;;;;;;5013851;28;20211;-68
2022/06/27 09:51:43;;;;;;;0.80;0.60;;;27.40;51.60;;;;;;5013789;28;20291;-68
2022/06/27 09:54:11;;;;;;;0.95;0.73;;;27.40;51.40;;;;;;5030089;28;20196;-68
2022/06/27 09:56:39;;;;;;;0.80;0.70;;;27.50;51.30;;;;;;5013867;28;20709;-68
2022/06/27 09:59:07;;;;;;;1.15;1.00;;;27.50;51.30;;;;;;5014000;28;20200;-68
2022/06/27 10:01:34;;;;;;;0.82;0.70;;;27.60;51.20;;;;;;5014754;28;20192;-68
2022/06/27 10:04:01;;;;;;;0.50;0.50;;;27.70;51.10;;;;;;5013364;28;20219;-68
2022/06/27 10:06:29;;;;;;;0.60;0.60;;;27.70;51.00;;;;;;5029846;28;20591;-68
2022/06/27 10:08:58;;;;;;;1.20;0.90;;;27.60;51.00;;;;;;5029992;28;20331;-68
2022/06/27 10:11:25;;;;;;;0.68;0.68;;;27.60;51.00;;;;;;5013495;28;20644;-67
2022/06/27 10:14:14;;;;;;;0.90;0.90;;;27.60;51.00;;;;;;5013516;28;20202;-68
2022/06/27 10:16:55;;;;;;;0.57;0.57;;;27.60;51.10;;;;;;5013262;28;20697;-68
2022/06/27 10:19:23;;;;;;;0.57;0.50;;;27.60;51.10;;;;;;5013057;28;20210;-68
2022/06/27 10:21:51;;;;;;;0.63;0.63;;;27.60;51.20;;;;;;5013242;28;20192;-68
2022/06/27 10:24:32;;;;;;;1.67;0.90;;;27.60;51.20;;;;;;5013261;28;20254;-68
2022/06/27 10:27:08;;;;;;;0.60;0.60;;;27.60;51.30;;;;;;5014195;28;20307;-68
2022/06/27 10:29:46;;;;;;;0.63;0.50;;;27.60;51.30;;;;;;5029404;28;20196;-68
2022/06/27 10:32:46;;;;;;;1.05;0.80;;;27.60;51.30;;;;;;5013169;28;20191;-68
2022/06/27 10:35:16;;;;;;;0.68;0.60;;;27.50;51.30;;;;;;4982458;28;20254;-69
2022/06/27 10:37:45;;;;;;;0.77;0.77;;;27.50;51.30;;;;;;5029786;28;20216;-68
2022/06/27 10:40:52;;;;;;;1.10;0.90;;;27.40;51.20;;;;;;5029381;28;20196;-68
2022/06/27 10:43:45;;;;;;;0.60;0.60;;;27.40;51.60;;;;;;5029329;28;20238;-68
2022/06/27 10:46:52;;;;;;;0.60;0.60;;;27.30;51.70;;;;;;5029405;28;20214;-68
2022/06/27 10:49:23;;;;;;;0.90;0.80;;;27.20;51.80;;;;;;5029228;28;20200;-68
2022/06/27 10:51:52;;;;;;;1.25;0.60;;;27.20;52.00;;;;;;5029322;28;20212;-68
2022/06/27 10:54:19;;;;;;;0.68;0.68;;;27.20;52.10;;;;;;5029207;28;20200;-68
2022/06/27 10:56:47;;;;;;;0.70;0.68;;;27.10;52.10;;;;;;5013919;28;20254;-68
2022/06/27 10:59:57;;;;;;;0.80;0.80;;;27.10;52.30;;;;;;5013895;28;20204;-68
2022/06/27 11:02:28;;;;;;;0.75;0.75;;;27.00;52.30;;;;;;5013051;28;20629;-68
2022/06/27 11:04:56;;;;;;;1.45;0.80;;;27.00;52.40;;;;;;5013935;28;20184;-68
2022/06/27 11:07:23;;;;;;;0.63;0.63;;;27.00;52.50;;;;;;5028909;28;20254;-68
2022/06/27 11:09:50;;;;;;;1.05;0.60;;;27.00;52.60;;;;;;5013763;28;20258;-68
2022/06/27 11:12:19;;;;;;;1.58;1.00;;;26.90;52.50;;;;;;5012431;28;20202;-68
2022/06/27 11:14:49;;;;;;;0.60;0.60;;;26.90;52.70;;;;;;5013779;28;20224;-68
2022/06/27 11:17:32;;;;;;;2.30;0.82;;;26.90;52.70;;;;;;5013902;28;20211;-68
2022/06/27 11:20:23;;;;;;;1.08;0.85;;;26.80;52.60;;;;;;5012533;28;20212;-68
2022/06/27 11:22:52;;;;;;;0.73;0.70;;;26.90;52.90;;;;;;5013965;28;20173;-68
2022/06/27 11:25:20;;;;;;;1.95;0.82;;;26.80;52.80;;;;;;5028870;28;20204;-68
2022/06/27 11:27:48;;;;;;;0.85;0.80;;;26.80;52.90;;;;;;5028858;28;20238;-68
2022/06/27 11:33:26;;;;;;;0.88;0.88;;;26.80;53.00;;;;;;5033446;28;20188;-67
2022/06/27 11:35:54;;;;;;;0.45;0.45;;;26.70;53.00;;;;;;5016483;28;20200;-65
2022/06/27 11:38:28;;;;;;;0.70;0.70;;;26.70;53.10;;;;;;5016188;28;20223;-65
2022/06/27 11:41:16;;;;;;;0.90;0.90;;;26.60;53.00;;;;;;5017472;28;20175;-65
2022/06/27 11:43:50;;;;;;;1.08;0.80;;;26.60;53.10;;;;;;5012750;28;20231;-68
2022/06/27 11:46:32;;;;;;;1.00;0.90;;;26.60;53.20;;;;;;5032754;28;20210;-68
2022/06/27 11:49:02;;;;;;;0.75;0.75;;;26.60;53.20;;;;;;5016030;28;20204;-68
2022/06/27 11:51:31;;;;;;;0.90;0.90;;;26.60;53.30;;;;;;5032470;28;20598;-69
2022/06/27 11:54:02;;;;;;;0.85;0.82;;;26.60;53.40;;;;;;5015940;28;20580;-68
2022/06/27 11:56:30;;;;;;;0.65;0.63;;;26.50;53.40;;;;;;5017168;28;20266;-68
2022/06/27 11:58:57;;;;;;;0.75;0.75;;;26.50;53.50;;;;;;5017006;28;20195;-68
2022/06/27 12:01:24;;;;;;;0.80;0.80;;;26.50;53.60;;;;;;5017093;28;20192;-69
2022/06/27 12:04:12;;;;;;;0.70;0.70;;;26.50;53.70;;;;;;5015859;28;20211;-68
2022/06/27 12:06:44;;;;;;;0.80;0.80;;;26.40;53.70;;;;;;5016771;28;20216;-68
2022/06/27 12:09:11;;;;;;;0.85;0.68;;;26.50;53.70;;;;;;5015573;28;20202;-68
2022/06/27 12:11:38;;;;;;;0.70;0.70;;;26.50;53.70;;;;;;5016859;28;20279;-68
2022/06/27 12:14:05;;;;;;;0.73;0.73;;;26.40;53.60;;;;;;5032145;28;20739;-68
2022/06/27 12:16:47;;;;;;;0.75;0.75;;;26.40;53.60;;;;;;5015513;28;20216;-67
2022/06/27 12:19:16;;;;;;;0.75;0.70;;;26.40;53.60;;;;;;5015535;28;20231;-68
2022/06/27 12:21:42;;;;;;;0.80;0.80;;;26.40;53.60;;;;;;5015424;28;20192;-68
2022/06/27 12:24:10;;;;;;;0.82;0.80;;;26.50;53.70;;;;;;5015385;28;20192;-68
2022/06/27 12:26:38;;;;;;;0.80;0.80;;;26.40;53.60;;;;;;5031466;28;20232;-68
2022/06/27 12:29:05;;;;;;;0.88;0.88;;;26.40;53.70;;;;;;5015329;28;20192;-68
2022/06/27 12:31:33;;;;;;;1.35;1.00;;;26.40;53.60;;;;;;5016509;28;20192;-66
2022/06/27 12:34:00;;;;;;;0.80;0.80;;;26.40;53.60;;;;;;5015702;28;20688;-68
2022/06/27 12:36:30;;;;;;;0.90;0.90;;;26.40;53.70;;;;;;5016570;28;20300;-68
2022/06/27 12:38:58;;;;;;;0.65;0.65;;;26.40;53.70;;;;;;5015302;28;20197;-68
2022/06/27 12:41:25;;;;;;;0.80;0.80;;;26.40;53.60;;;;;;5016324;28;20271;-68
2022/06/27 12:43:52;;;;;;;0.88;0.73;;;26.40;53.70;;;;;;5015008;28;20211;-69
2022/06/27 12:46:19;;;;;;;1.00;1.00;;;26.30;53.70;;;;;;5031307;28;20298;-65
2022/06/27 12:48:46;;;;;;;0.82;0.82;;;26.40;53.70;;;;;;5014913;28;20224;-65
2022/06/27 12:51:13;;;;;;;1.00;1.00;;;26.30;53.70;;;;;;5031313;28;20708;-65
2022/06/27 12:53:42;;;;;;;1.42;1.10;;;26.30;53.70;;;;;;5014863;28;20579;-65
2022/06/27 12:56:09;;;;;;;1.55;1.10;;;26.30;53.80;;;;;;5015878;28;20255;-65
2022/06/27 12:58:37;;;;;;;0.77;0.77;;;26.30;53.80;;;;;;5014703;28;20255;-65
2022/06/27 13:01:04;;;;;;;0.70;0.70;;;26.30;53.80;;;;;;5014828;28;20270;-68
2022/06/27 13:03:31;;;;;;;1.05;1.05;;;26.30;53.80;;;;;;5031244;28;20205;-67
2022/06/27 13:05:58;;;;;;;0.95;0.95;;;26.30;53.80;;;;;;5015874;28;20195;-67
2022/06/27 13:08:25;;;;;;;1.10;1.00;;;26.30;53.80;;;;;;5015651;28;20212;-66